createdAt,value
2023-02-26T00:01:20.815Z,1.80
2023-02-26T00:03:59.352Z,1.80
2023-02-26T00:06:27.774Z,1.80
2023-02-26T00:08:55.722Z,1.80
2023-02-26T00:11:23.071Z,1.80
2023-02-26T00:13:50.420Z,1.80
2023-02-26T00:16:23.674Z,1.80
2023-02-26T00:18:50.761Z,1.80
2023-02-26T00:21:19.488Z,1.70
2023-02-26T00:23:46.542Z,1.70
2023-02-26T00:26:13.554Z,1.60
2023-02-26T00:28:40.980Z,1.60
2023-02-26T00:31:08.852Z,1.60
2023-02-26T00:33:36.187Z,1.60
2023-02-26T00:36:29.377Z,1.60
2023-02-26T00:39:19.420Z,1.60
2023-02-26T00:41:46.457Z,1.60
2023-02-26T00:44:13.527Z,1.50
2023-02-26T00:47:12.085Z,1.40
2023-02-26T00:50:04.750Z,1.40
2023-02-26T00:52:47.114Z,1.40
2023-02-26T00:55:14.046Z,1.30
2023-02-26T00:57:40.817Z,1.30
2023-02-26T01:00:08.530Z,1.20
2023-02-26T01:02:36.622Z,1.40
2023-02-26T01:05:04.590Z,1.40
2023-02-26T01:07:40.082Z,1.50
2023-02-26T01:10:07.664Z,1.40
2023-02-26T01:12:34.874Z,1.40
2023-02-26T01:15:01.892Z,1.30
2023-02-26T01:17:35.960Z,1.30
2023-02-26T01:20:23.042Z,1.30
2023-02-26T01:22:59.667Z,1.40
2023-02-26T01:25:39.310Z,1.20
2023-02-26T01:28:06.414Z,1.30
2023-02-26T01:30:33.693Z,1.30
2023-02-26T01:33:04.587Z,1.40
2023-02-26T01:35:37.384Z,1.40
2023-02-26T01:38:28.429Z,1.30
2023-02-26T01:41:07.208Z,1.30
2023-02-26T01:44:08.200Z,1.20
2023-02-26T01:46:39.729Z,1.20
2023-02-26T01:49:14.185Z,1.20
2023-02-26T01:51:48.964Z,1.10
2023-02-26T01:54:20.645Z,1.00
2023-02-26T01:57:09.395Z,1.20
2023-02-26T01:59:43.562Z,1.20
2023-02-26T02:02:13.350Z,1.10
2023-02-26T02:04:40.713Z,1.00
2023-02-26T02:07:07.996Z,0.90
2023-02-26T02:09:35.238Z,1.00
2023-02-26T02:12:26.776Z,1.00
2023-02-26T02:15:05.991Z,0.90
2023-02-26T02:18:01.972Z,1.00
2023-02-26T02:21:05.708Z,0.90
2023-02-26T02:23:41.560Z,1.00
2023-02-26T02:26:45.424Z,1.10
2023-02-26T02:29:36.792Z,0.90
2023-02-26T02:32:09.958Z,0.90
2023-02-26T02:34:54.979Z,0.80
2023-02-26T02:37:29.453Z,0.70
2023-02-26T02:40:08.908Z,0.90
2023-02-26T02:42:54.264Z,0.90
2023-02-26T02:45:23.765Z,1.00
2023-02-26T02:47:57.326Z,1.10
2023-02-26T02:50:35.434Z,1.20
2023-02-26T02:53:09.191Z,1.20
2023-02-26T02:55:41.559Z,1.20
2023-02-26T02:58:12.753Z,1.30
2023-02-26T03:00:46.338Z,1.20
2023-02-26T03:03:24.410Z,1.20
2023-02-26T03:05:51.351Z,1.20
2023-02-26T03:08:22.403Z,1.30
2023-02-26T03:10:49.278Z,1.20
2023-02-26T03:13:21.711Z,1.10
2023-02-26T03:16:17.528Z,1.10
2023-02-26T03:19:07.605Z,1.10
2023-02-26T03:22:03.682Z,1.00
2023-02-26T03:24:46.378Z,1.00
2023-02-26T03:27:16.290Z,0.90
2023-02-26T03:29:59.014Z,0.90
2023-02-26T03:32:45.077Z,0.80
2023-02-26T03:35:26.787Z,0.70
2023-02-26T03:37:59.106Z,0.70
2023-02-26T03:40:30.613Z,0.60
2023-02-26T03:43:02.755Z,0.60
2023-02-26T03:45:34.568Z,0.70
2023-02-26T03:48:04.678Z,0.70
2023-02-26T03:50:31.486Z,0.70
2023-02-26T03:53:01.494Z,0.80
2023-02-26T03:55:35.427Z,0.90
2023-02-26T03:58:02.581Z,0.80
2023-02-26T04:00:32.888Z,0.70
2023-02-26T04:03:07.758Z,0.80
2023-02-26T04:05:43.238Z,0.80
2023-02-26T04:08:10.047Z,0.70
2023-02-26T04:10:51.807Z,0.70
2023-02-26T04:13:18.654Z,0.80
2023-02-26T04:15:45.450Z,0.80
2023-02-26T04:18:12.404Z,0.70
2023-02-26T04:20:39.160Z,0.70
2023-02-26T04:23:05.959Z,0.70
2023-02-26T04:25:32.784Z,0.60
2023-02-26T04:27:59.590Z,0.60
2023-02-26T04:30:26.419Z,0.60
2023-02-26T04:32:53.234Z,0.50
2023-02-26T04:35:20.104Z,0.50
2023-02-26T04:37:46.921Z,0.40
2023-02-26T04:40:13.957Z,0.50
2023-02-26T04:42:40.879Z,0.80
2023-02-26T04:45:08.311Z,1.00
2023-02-26T04:47:35.274Z,1.00
2023-02-26T04:50:02.203Z,0.90
2023-02-26T04:52:29.090Z,1.00
2023-02-26T04:54:55.870Z,0.90
2023-02-26T04:57:22.652Z,0.90
2023-02-26T04:59:49.460Z,0.80
2023-02-26T05:02:16.312Z,0.90
2023-02-26T05:04:43.181Z,1.10
2023-02-26T05:07:10.034Z,1.10
2023-02-26T05:09:36.846Z,1.10
2023-02-26T05:12:03.724Z,1.20
2023-02-26T05:14:30.540Z,1.30
2023-02-26T05:16:57.367Z,1.30
2023-02-26T05:19:24.263Z,1.30
2023-02-26T05:21:51.088Z,1.30
2023-02-26T05:24:18.374Z,1.30
2023-02-26T05:26:45.175Z,1.40
2023-02-26T05:29:12.048Z,1.50
2023-02-26T05:31:38.997Z,1.60
2023-02-26T05:34:05.930Z,1.60
2023-02-26T05:36:32.769Z,1.50
2023-02-26T05:38:59.601Z,1.60
2023-02-26T05:41:26.470Z,1.60
2023-02-26T05:43:53.412Z,1.70
2023-02-26T05:46:20.341Z,1.80
2023-02-26T05:48:47.235Z,1.70
2023-02-26T05:51:14.000Z,1.80
2023-02-26T05:53:40.804Z,1.90
2023-02-26T05:56:07.925Z,1.90
2023-02-26T05:58:34.870Z,1.90
2023-02-26T06:01:01.735Z,1.80
2023-02-26T06:03:28.680Z,1.70
2023-02-26T06:05:55.496Z,1.80
2023-02-26T06:08:22.358Z,1.80
2023-02-26T06:10:51.364Z,1.70
2023-02-26T06:13:18.739Z,1.80
2023-02-26T06:15:45.538Z,1.80
2023-02-26T06:18:12.942Z,1.80
2023-02-26T06:20:39.806Z,1.70
2023-02-26T06:23:06.676Z,1.60
2023-02-26T06:25:33.547Z,1.70
2023-02-26T06:28:00.351Z,1.70
2023-02-26T06:30:27.347Z,1.70
2023-02-26T06:32:54.271Z,1.60
2023-02-26T06:35:21.112Z,1.70
2023-02-26T06:37:49.000Z,1.80
2023-02-26T06:40:16.090Z,1.70
2023-02-26T06:42:42.975Z,1.70
2023-02-26T06:45:10.187Z,1.60
2023-02-26T06:47:37.147Z,1.50
2023-02-26T06:50:05.183Z,1.60
2023-02-26T06:52:32.000Z,1.70
2023-02-26T06:54:58.795Z,1.70
2023-02-26T06:57:25.693Z,1.50
2023-02-26T06:59:52.560Z,1.70
2023-02-26T07:02:21.409Z,1.70
2023-02-26T07:04:48.400Z,1.70
2023-02-26T07:07:16.038Z,1.60
2023-02-26T07:09:45.624Z,1.80
2023-02-26T07:12:13.133Z,1.80
2023-02-26T07:14:43.137Z,1.90
2023-02-26T07:17:10.570Z,1.90
2023-02-26T07:19:37.428Z,1.90
2023-02-26T07:22:04.237Z,2.00
2023-02-26T07:24:31.049Z,2.00
2023-02-26T07:26:57.812Z,2.30
2023-02-26T07:29:25.231Z,2.40
2023-02-26T07:31:52.322Z,2.40
2023-02-26T07:34:19.412Z,2.50
2023-02-26T07:36:46.246Z,2.40
2023-02-26T07:39:13.337Z,2.50
2023-02-26T07:41:40.194Z,2.60
2023-02-26T07:44:07.075Z,2.70
2023-02-26T07:46:34.362Z,2.70
2023-02-26T07:49:01.214Z,2.80
2023-02-26T07:51:28.269Z,2.80
2023-02-26T07:53:55.153Z,2.90
2023-02-26T07:56:22.009Z,2.90
2023-02-26T07:58:48.843Z,2.90
2023-02-26T08:01:16.328Z,3.00
2023-02-26T08:03:43.232Z,3.00
2023-02-26T08:06:10.182Z,3.10
2023-02-26T08:08:37.074Z,3.20
2023-02-26T08:11:04.268Z,3.40
2023-02-26T08:13:31.053Z,3.30
2023-02-26T08:15:58.074Z,3.20
2023-02-26T08:18:24.915Z,3.30
2023-02-26T08:20:52.621Z,3.50
2023-02-26T08:23:20.153Z,3.50
2023-02-26T08:25:47.170Z,3.40
2023-02-26T08:28:14.073Z,3.60
2023-02-26T08:30:41.050Z,3.70
2023-02-26T08:33:08.537Z,3.90
2023-02-26T08:35:35.352Z,3.90
2023-02-26T08:38:02.306Z,4.00
2023-02-26T08:40:29.073Z,4.10
2023-02-26T08:42:55.878Z,4.10
2023-02-26T08:45:22.882Z,4.20
2023-02-26T08:47:56.728Z,4.10
2023-02-26T08:50:25.490Z,4.10
2023-02-26T08:52:52.989Z,4.20
2023-02-26T08:55:19.870Z,4.20
2023-02-26T08:57:46.733Z,4.20
2023-02-26T09:00:16.498Z,4.20
2023-02-26T09:02:43.426Z,4.30
2023-02-26T09:05:10.566Z,4.50
2023-02-26T09:07:37.939Z,4.60
2023-02-26T09:10:06.267Z,4.80
2023-02-26T09:12:36.064Z,5.50
2023-02-26T09:15:04.879Z,5.60
2023-02-26T09:17:32.251Z,5.50
2023-02-26T09:19:59.178Z,5.20
2023-02-26T09:22:26.026Z,5.00
2023-02-26T09:24:52.865Z,4.90
2023-02-26T09:27:19.763Z,4.70
2023-02-26T09:29:46.566Z,4.70
2023-02-26T09:32:13.734Z,4.60
2023-02-26T09:34:40.777Z,4.60
2023-02-26T09:37:09.207Z,4.50
2023-02-26T09:39:37.176Z,4.50
2023-02-26T09:42:12.958Z,4.50
2023-02-26T09:44:40.148Z,4.70
2023-02-26T09:47:18.325Z,5.60
2023-02-26T09:49:58.325Z,6.30
2023-02-26T09:52:34.994Z,6.50
2023-02-26T09:55:26.578Z,6.40
2023-02-26T09:57:58.766Z,6.20
2023-02-26T10:00:28.703Z,5.70
2023-02-26T10:03:19.662Z,5.60
2023-02-26T10:06:06.030Z,5.40
2023-02-26T10:09:08.087Z,5.20
2023-02-26T10:11:52.729Z,5.20
2023-02-26T10:14:35.516Z,5.20
2023-02-26T10:17:14.539Z,5.30
2023-02-26T10:19:45.957Z,5.30
2023-02-26T10:22:35.192Z,5.20
2023-02-26T10:25:21.403Z,5.10
2023-02-26T10:28:12.576Z,5.20
2023-02-26T10:31:11.433Z,5.20
2023-02-26T10:33:50.225Z,5.10
2023-02-26T10:36:38.140Z,5.10
2023-02-26T10:39:21.101Z,5.10
2023-02-26T10:41:48.098Z,5.20
2023-02-26T10:44:49.365Z,5.20
2023-02-26T10:48:14.075Z,5.30
2023-02-26T10:50:53.088Z,5.30
2023-02-26T10:53:21.976Z,5.50
2023-02-26T10:56:02.977Z,5.60
2023-02-26T10:58:29.873Z,5.60
2023-02-26T11:00:57.556Z,5.60
2023-02-26T11:03:33.462Z,5.40
2023-02-26T11:06:03.762Z,5.30
2023-02-26T11:08:53.357Z,5.30
2023-02-26T11:11:47.174Z,5.30
2023-02-26T11:14:15.580Z,5.40
2023-02-26T11:16:51.099Z,5.50
2023-02-26T11:19:25.177Z,5.50
2023-02-26T11:21:52.265Z,5.80
2023-02-26T11:24:40.452Z,6.30
2023-02-26T11:27:14.178Z,6.60
2023-02-26T11:29:43.302Z,6.60
2023-02-26T11:32:29.812Z,6.60
2023-02-26T11:34:56.808Z,6.60
2023-02-26T11:37:29.420Z,6.20
2023-02-26T11:40:11.550Z,5.90
2023-02-26T11:42:48.578Z,5.70
2023-02-26T11:45:18.583Z,5.70
2023-02-26T11:47:46.417Z,5.90
2023-02-26T11:50:23.146Z,5.80
2023-02-26T11:53:28.314Z,5.90
2023-02-26T11:56:04.392Z,6.00
2023-02-26T11:58:37.324Z,6.00
2023-02-26T12:01:06.361Z,6.00
2023-02-26T12:03:40.102Z,6.30
2023-02-26T12:06:14.430Z,6.40
2023-02-26T12:08:41.199Z,6.20
2023-02-26T12:11:14.015Z,6.40
2023-02-26T12:14:25.652Z,6.90
2023-02-26T12:17:17.466Z,6.90
2023-02-26T12:20:15.121Z,6.40
2023-02-26T12:22:54.957Z,5.90
2023-02-26T12:25:46.495Z,5.70
2023-02-26T12:28:33.700Z,5.90
2023-02-26T12:31:37.683Z,6.00
2023-02-26T12:34:45.870Z,6.00
2023-02-26T12:37:34.549Z,6.00
2023-02-26T12:40:30.780Z,6.20
2023-02-26T12:43:26.702Z,6.20
2023-02-26T12:46:04.578Z,6.20
2023-02-26T12:48:31.581Z,6.10
2023-02-26T12:51:30.971Z,6.00
2023-02-26T12:54:06.657Z,5.90
2023-02-26T12:56:52.929Z,5.90
2023-02-26T12:59:39.848Z,6.00
2023-02-26T13:02:31.439Z,5.90
2023-02-26T13:05:22.966Z,5.90
2023-02-26T13:07:52.417Z,6.10
2023-02-26T13:10:31.213Z,6.20
2023-02-26T13:13:37.146Z,5.90
2023-02-26T13:16:09.865Z,5.70
2023-02-26T13:18:55.276Z,5.70
2023-02-26T13:21:34.947Z,5.60
2023-02-26T13:24:20.789Z,5.70
2023-02-26T13:26:49.007Z,5.70
2023-02-26T13:29:20.896Z,5.90
2023-02-26T13:31:59.707Z,6.10
2023-02-26T13:34:46.581Z,6.20
2023-02-26T13:37:34.071Z,6.20
2023-02-26T13:40:00.818Z,6.10
2023-02-26T13:42:59.552Z,6.10
2023-02-26T13:45:49.322Z,6.20
2023-02-26T13:48:47.169Z,6.20
2023-02-26T13:51:29.782Z,6.10
2023-02-26T13:54:04.437Z,6.20
2023-02-26T13:56:31.192Z,6.20
2023-02-26T13:59:24.289Z,6.20
2023-02-26T14:01:57.440Z,6.10
2023-02-26T14:04:29.115Z,6.20
2023-02-26T14:07:14.859Z,6.40
2023-02-26T14:10:05.266Z,6.40
2023-02-26T14:12:37.995Z,6.20
2023-02-26T14:15:13.989Z,6.10
2023-02-26T14:17:49.113Z,5.90
2023-02-26T14:20:28.574Z,5.90
2023-02-26T14:23:12.771Z,5.80
2023-02-26T14:26:10.932Z,5.70
2023-02-26T14:28:44.566Z,5.60
2023-02-26T14:31:11.522Z,5.50
2023-02-26T14:34:02.914Z,5.40
2023-02-26T14:36:46.805Z,5.30
2023-02-26T14:39:23.875Z,5.20
2023-02-26T14:41:55.990Z,5.20
2023-02-26T14:44:28.192Z,5.30
2023-02-26T14:46:55.661Z,5.30
2023-02-26T14:49:30.859Z,5.40
2023-02-26T14:52:06.186Z,5.50
2023-02-26T14:55:01.771Z,5.40
2023-02-26T14:57:43.023Z,5.20
2023-02-26T15:00:30.323Z,5.20
2023-02-26T15:03:44.472Z,5.10
2023-02-26T15:06:18.157Z,5.00
2023-02-26T15:09:00.322Z,5.00
2023-02-26T15:11:37.013Z,5.10
2023-02-26T15:14:31.085Z,5.00
2023-02-26T15:17:31.117Z,5.00
2023-02-26T15:20:09.852Z,4.90
2023-02-26T15:22:36.596Z,4.80
2023-02-26T15:25:11.671Z,4.70
2023-02-26T15:27:39.075Z,4.70
2023-02-26T15:30:06.576Z,4.70
2023-02-26T15:32:37.886Z,4.60
2023-02-26T15:35:15.644Z,4.60
2023-02-26T15:37:42.554Z,4.60
2023-02-26T15:40:10.153Z,4.60
2023-02-26T15:42:42.981Z,4.60
2023-02-26T15:45:18.574Z,4.60
2023-02-26T15:47:46.374Z,4.60
2023-02-26T15:50:17.502Z,4.60
2023-02-26T15:52:45.560Z,4.70
2023-02-26T15:55:17.983Z,4.80
2023-02-26T15:57:45.473Z,4.70
2023-02-26T16:00:25.581Z,4.70
2023-02-26T16:02:58.704Z,4.70
2023-02-26T16:05:26.585Z,4.60
2023-02-26T16:07:53.488Z,4.60
2023-02-26T16:10:34.884Z,4.50
2023-02-26T16:13:02.506Z,4.50
2023-02-26T16:15:31.832Z,4.40
2023-02-26T16:18:00.505Z,4.40
2023-02-26T16:20:31.187Z,4.30
2023-02-26T16:23:02.808Z,4.40
2023-02-26T16:25:51.338Z,4.20
2023-02-26T16:28:31.612Z,4.20
2023-02-26T16:31:01.260Z,4.10
2023-02-26T16:33:33.249Z,4.10
2023-02-26T16:36:09.875Z,4.00
2023-02-26T16:38:47.763Z,3.90
2023-02-26T16:41:14.916Z,3.70
2023-02-26T16:43:47.806Z,3.60
2023-02-26T16:46:27.754Z,3.70
2023-02-26T16:49:00.195Z,3.80
2023-02-26T16:51:32.122Z,3.60
2023-02-26T16:54:03.132Z,3.40
2023-02-26T16:56:36.128Z,3.50
2023-02-26T16:59:13.160Z,3.40
2023-02-26T17:02:05.048Z,3.20
2023-02-26T17:04:35.442Z,3.10
2023-02-26T17:07:05.971Z,2.90
2023-02-26T17:09:44.686Z,2.80
2023-02-26T17:12:24.000Z,2.90
2023-02-26T17:14:57.792Z,2.80
2023-02-26T17:17:25.782Z,2.80
2023-02-26T17:19:53.077Z,2.70
2023-02-26T17:22:26.514Z,2.70
2023-02-26T17:24:53.645Z,2.60
2023-02-26T17:27:35.090Z,2.50
2023-02-26T17:30:05.065Z,2.50
2023-02-26T17:32:32.185Z,2.30
2023-02-26T17:34:59.418Z,2.30
2023-02-26T17:37:31.360Z,2.20
2023-02-26T17:39:59.539Z,2.10
2023-02-26T17:42:26.566Z,2.10
2023-02-26T17:44:55.171Z,1.90
2023-02-26T17:47:24.592Z,1.90
2023-02-26T17:49:52.394Z,1.80
2023-02-26T17:52:19.473Z,1.80
2023-02-26T17:54:46.401Z,1.80
2023-02-26T17:57:19.411Z,1.80
2023-02-26T17:59:46.529Z,1.70
2023-02-26T18:02:22.275Z,1.60
2023-02-26T18:04:49.550Z,1.60
2023-02-26T18:07:18.022Z,1.50
2023-02-26T18:09:46.338Z,1.40
2023-02-26T18:12:23.059Z,1.50
2023-02-26T18:14:50.944Z,1.40
2023-02-26T18:17:31.173Z,1.40
2023-02-26T18:19:58.521Z,1.30
2023-02-26T18:22:27.529Z,1.30
2023-02-26T18:24:55.633Z,1.30
2023-02-26T18:27:25.186Z,1.30
2023-02-26T18:29:52.260Z,1.30
2023-02-26T18:32:22.141Z,1.30
2023-02-26T18:34:50.916Z,1.30
2023-02-26T18:37:22.402Z,1.30
2023-02-26T18:39:50.400Z,1.20
2023-02-26T18:42:26.311Z,1.20
2023-02-26T18:44:54.236Z,1.10
2023-02-26T18:47:22.831Z,1.00
2023-02-26T18:49:51.417Z,1.00
2023-02-26T18:52:18.819Z,0.90
2023-02-26T18:54:45.847Z,0.90
2023-02-26T18:57:12.696Z,0.90
2023-02-26T18:59:39.539Z,0.90
2023-02-26T19:02:07.471Z,0.80
2023-02-26T19:04:37.831Z,0.80
2023-02-26T19:07:04.666Z,0.80
2023-02-26T19:09:31.532Z,0.70
2023-02-26T19:11:58.619Z,0.60
2023-02-26T19:14:26.207Z,0.60
2023-02-26T19:16:54.384Z,0.50
2023-02-26T19:19:21.767Z,0.40
2023-02-26T19:21:50.525Z,0.30
2023-02-26T19:24:17.484Z,0.30
2023-02-26T19:26:44.571Z,0.20
2023-02-26T19:29:16.227Z,0.10
2023-02-26T19:31:45.984Z,0.10
2023-02-26T19:34:14.020Z,0.00
2023-02-26T19:36:48.143Z,0.00
2023-02-26T19:39:16.903Z,-0.10
2023-02-26T19:41:44.563Z,-0.10
2023-02-26T19:44:12.182Z,-0.10
2023-02-26T19:46:39.182Z,-0.10
2023-02-26T19:49:06.072Z,0.00
2023-02-26T19:51:32.973Z,0.00
2023-02-26T19:54:00.661Z,-0.20
2023-02-26T19:56:27.595Z,-0.30
2023-02-26T19:58:54.378Z,-0.30
2023-02-26T20:01:21.310Z,-0.30
2023-02-26T20:03:49.186Z,-0.40
2023-02-26T20:06:16.248Z,-0.40
2023-02-26T20:08:43.194Z,-0.40
2023-02-26T20:11:14.641Z,-0.40
2023-02-26T20:13:42.207Z,-0.40
2023-02-26T20:16:10.462Z,-0.40
2023-02-26T20:18:38.537Z,-0.40
2023-02-26T20:21:10.880Z,-0.50
2023-02-26T20:23:39.705Z,-0.50
2023-02-26T20:26:10.498Z,-0.60
2023-02-26T20:28:37.504Z,-0.60
2023-02-26T20:31:05.837Z,-0.60
2023-02-26T20:33:33.764Z,-0.60
2023-02-26T20:36:01.005Z,-0.60
2023-02-26T20:38:28.842Z,-0.60
2023-02-26T20:40:56.679Z,-0.60
2023-02-26T20:43:25.084Z,-0.50
2023-02-26T20:45:52.022Z,-0.50
2023-02-26T20:48:19.078Z,-0.50
2023-02-26T20:50:45.933Z,-0.50
2023-02-26T20:53:12.931Z,-0.50
2023-02-26T20:55:39.752Z,-0.50
2023-02-26T20:58:06.566Z,-0.50
2023-02-26T21:00:33.462Z,-0.40
2023-02-26T21:03:00.395Z,-0.50
2023-02-26T21:05:27.223Z,-0.40
2023-02-26T21:07:54.153Z,-0.40
2023-02-26T21:10:21.086Z,-0.40
2023-02-26T21:12:47.998Z,-0.40
2023-02-26T21:15:15.123Z,-0.50
2023-02-26T21:17:43.555Z,-0.50
2023-02-26T21:20:12.852Z,-0.60
2023-02-26T21:22:39.987Z,-0.60
2023-02-26T21:25:08.003Z,-0.70
2023-02-26T21:27:35.885Z,-0.70
2023-02-26T21:30:07.180Z,-0.80
2023-02-26T21:32:34.107Z,-0.80
2023-02-26T21:35:01.020Z,-0.80
2023-02-26T21:37:29.396Z,-0.90
2023-02-26T21:39:56.685Z,-0.90
2023-02-26T21:42:23.662Z,-1.00
2023-02-26T21:44:50.498Z,-1.00
2023-02-26T21:47:17.599Z,-1.00
2023-02-26T21:49:44.619Z,-1.00
2023-02-26T21:52:12.010Z,-1.00
2023-02-26T21:54:39.113Z,-1.00
2023-02-26T21:57:06.062Z,-0.90
2023-02-26T21:59:32.931Z,-0.90
2023-02-26T22:02:00.116Z,-0.90
2023-02-26T22:04:27.174Z,-0.90
2023-02-26T22:06:54.213Z,-0.90
2023-02-26T22:09:21.871Z,-1.00
2023-02-26T22:11:48.907Z,-1.00
2023-02-26T22:14:16.051Z,-1.00
2023-02-26T22:16:43.019Z,-1.00
2023-02-26T22:19:09.983Z,-1.00
2023-02-26T22:21:36.888Z,-1.00
2023-02-26T22:24:05.267Z,-0.90
2023-02-26T22:26:32.522Z,-0.90
2023-02-26T22:29:00.832Z,-0.90
2023-02-26T22:31:29.821Z,-0.90
2023-02-26T22:33:57.425Z,-0.80
2023-02-26T22:36:25.302Z,-0.80
2023-02-26T22:38:52.158Z,-0.80
2023-02-26T22:41:19.097Z,-0.90
2023-02-26T22:43:45.957Z,-0.90
2023-02-26T22:46:12.895Z,-0.90
2023-02-26T22:48:39.852Z,-0.90
2023-02-26T22:51:06.724Z,-1.00
2023-02-26T22:53:33.573Z,-0.90
2023-02-26T22:56:00.656Z,-0.90
2023-02-26T22:58:27.822Z,-0.90
2023-02-26T23:01:05.934Z,-0.90
2023-02-26T23:03:33.610Z,-0.90
2023-02-26T23:06:00.535Z,-0.90
2023-02-26T23:08:28.110Z,-0.90
2023-02-26T23:10:59.918Z,-0.90
2023-02-26T23:13:30.200Z,-0.90
2023-02-26T23:15:58.046Z,-0.90
2023-02-26T23:18:25.020Z,-0.90
2023-02-26T23:20:52.168Z,-0.80
2023-02-26T23:23:19.057Z,-0.80
2023-02-26T23:25:46.203Z,-0.90
2023-02-26T23:28:13.103Z,-0.90
2023-02-26T23:30:40.431Z,-1.00
2023-02-26T23:33:08.144Z,-1.00
2023-02-26T23:35:35.569Z,-1.00
2023-02-26T23:38:03.473Z,-1.00
2023-02-26T23:40:31.345Z,-1.00
2023-02-26T23:42:58.217Z,-1.00
2023-02-26T23:45:25.637Z,-1.00
2023-02-26T23:47:52.516Z,-0.90
2023-02-26T23:50:19.556Z,-1.00
2023-02-26T23:52:46.460Z,-0.90
2023-02-26T23:55:13.431Z,-0.90
2023-02-26T23:57:40.641Z,-0.90
